createdAt,value
2023-03-30T00:01:22.235Z,22.44
2023-03-30T00:03:51.521Z,22.22
2023-03-30T00:06:23.796Z,22.24
2023-03-30T00:08:58.118Z,22.34
2023-03-30T00:11:28.514Z,22.39
2023-03-30T00:13:57.605Z,22.55
2023-03-30T00:16:26.540Z,22.62
2023-03-30T00:18:55.635Z,22.44
2023-03-30T00:21:24.925Z,22.62
2023-03-30T00:23:53.998Z,22.70
2023-03-30T00:26:23.479Z,22.63
2023-03-30T00:28:52.480Z,22.53
2023-03-30T00:31:21.489Z,22.64
2023-03-30T00:33:50.968Z,22.46
2023-03-30T00:36:21.326Z,22.22
2023-03-30T00:38:50.369Z,22.26
2023-03-30T00:41:19.188Z,22.35
2023-03-30T00:44:00.450Z,22.18
2023-03-30T00:46:31.988Z,22.26
2023-03-30T00:49:07.569Z,22.10
2023-03-30T00:51:42.669Z,21.85
2023-03-30T00:54:18.237Z,22.22
2023-03-30T00:56:47.805Z,22.06
2023-03-30T00:59:16.741Z,22.21
2023-03-30T01:01:51.297Z,22.31
2023-03-30T01:04:21.723Z,22.30
2023-03-30T01:06:53.169Z,22.29
2023-03-30T01:09:23.647Z,22.27
2023-03-30T01:11:53.078Z,22.29
2023-03-30T01:14:22.120Z,22.43
2023-03-30T01:17:17.396Z,22.45
2023-03-30T01:20:16.124Z,22.44
2023-03-30T01:23:09.781Z,22.58
2023-03-30T01:25:57.361Z,22.57
2023-03-30T01:28:42.798Z,22.58
2023-03-30T01:31:26.461Z,22.52
2023-03-30T01:34:19.985Z,22.43
2023-03-30T01:37:09.125Z,22.61
2023-03-30T01:40:14.765Z,22.69
2023-03-30T01:43:05.571Z,22.52
2023-03-30T01:45:43.880Z,22.51
2023-03-30T01:48:46.686Z,22.40
2023-03-30T01:51:27.257Z,22.64
2023-03-30T01:54:04.003Z,22.61
2023-03-30T01:56:56.016Z,22.62
2023-03-30T01:59:49.143Z,22.69
2023-03-30T02:02:19.939Z,22.74
2023-03-30T02:04:50.262Z,22.61
2023-03-30T02:07:24.638Z,22.55
2023-03-30T02:09:57.332Z,22.63
2023-03-30T02:12:26.869Z,22.86
2023-03-30T02:14:59.765Z,22.76
2023-03-30T02:17:31.370Z,22.83
2023-03-30T02:20:01.720Z,22.85
2023-03-30T02:22:30.683Z,22.84
2023-03-30T02:25:01.467Z,22.74
2023-03-30T02:27:31.072Z,22.89
2023-03-30T02:29:59.922Z,22.96
2023-03-30T02:32:34.687Z,23.01
2023-03-30T02:35:29.938Z,23.11
2023-03-30T02:38:20.888Z,23.09
2023-03-30T02:41:09.740Z,23.18
2023-03-30T02:43:42.975Z,23.20
2023-03-30T02:46:53.204Z,23.13
2023-03-30T02:49:35.344Z,23.24
2023-03-30T02:52:34.749Z,23.33
2023-03-30T02:55:35.519Z,23.47
2023-03-30T02:58:22.325Z,23.70
2023-03-30T03:01:29.459Z,23.79
2023-03-30T03:04:04.234Z,23.83
2023-03-30T03:06:41.781Z,23.88
2023-03-30T03:09:11.150Z,23.87
2023-03-30T03:11:40.162Z,23.90
2023-03-30T03:14:10.534Z,23.85
2023-03-30T03:16:39.776Z,24.07
2023-03-30T03:19:19.694Z,23.98
2023-03-30T03:21:50.777Z,24.09
2023-03-30T03:24:20.109Z,24.14
2023-03-30T03:27:06.925Z,24.19
2023-03-30T03:29:52.563Z,24.09
2023-03-30T03:32:21.866Z,24.31
2023-03-30T03:34:51.898Z,24.37
2023-03-30T03:37:21.554Z,24.45
2023-03-30T03:39:50.283Z,24.62
2023-03-30T03:42:19.774Z,24.73
2023-03-30T03:45:02.260Z,25.01
2023-03-30T03:47:33.449Z,24.91
2023-03-30T03:50:05.113Z,25.14
2023-03-30T03:52:34.593Z,25.19
2023-03-30T03:55:04.603Z,25.04
2023-03-30T03:57:33.983Z,25.28
2023-03-30T04:00:05.023Z,25.21
2023-03-30T04:02:40.839Z,25.01
2023-03-30T04:05:10.558Z,25.18
2023-03-30T04:07:39.776Z,25.17
2023-03-30T04:10:09.816Z,25.27
2023-03-30T04:12:59.322Z,25.42
2023-03-30T04:15:57.351Z,25.48
2023-03-30T04:18:34.429Z,25.44
2023-03-30T04:21:13.965Z,25.52
2023-03-30T04:24:02.859Z,25.74
2023-03-30T04:26:50.324Z,25.88
2023-03-30T04:29:28.401Z,25.69
2023-03-30T04:32:21.759Z,25.88
2023-03-30T04:35:12.025Z,25.91
2023-03-30T04:38:02.922Z,25.97
2023-03-30T04:40:51.780Z,26.35
2023-03-30T04:43:41.359Z,26.48
2023-03-30T04:46:28.965Z,26.78
2023-03-30T04:49:10.056Z,27.00
2023-03-30T04:52:11.568Z,27.32
2023-03-30T04:54:58.297Z,27.43
2023-03-30T04:58:05.695Z,27.56
2023-03-30T05:00:53.186Z,27.53
2023-03-30T05:03:41.943Z,27.76
2023-03-30T05:06:28.931Z,27.75
2023-03-30T05:09:26.919Z,27.91
2023-03-30T05:12:27.964Z,28.06
2023-03-30T05:15:14.614Z,28.15
2023-03-30T05:18:02.438Z,27.89
2023-03-30T05:20:48.756Z,28.11
2023-03-30T05:23:27.737Z,28.20
2023-03-30T05:26:17.183Z,28.25
2023-03-30T05:29:06.721Z,28.72
2023-03-30T05:31:58.475Z,28.64
2023-03-30T05:34:46.318Z,28.81
2023-03-30T05:37:24.051Z,28.79
2023-03-30T05:40:16.994Z,29.18
2023-03-30T05:43:05.075Z,29.31
2023-03-30T05:45:54.179Z,29.38
2023-03-30T05:48:41.533Z,29.35
2023-03-30T05:51:26.958Z,29.22
2023-03-30T05:54:15.496Z,29.10
2023-03-30T05:56:47.347Z,29.12
2023-03-30T05:59:26.695Z,29.15
2023-03-30T06:02:25.586Z,28.94
2023-03-30T06:05:02.507Z,28.80
2023-03-30T06:07:32.858Z,29.20
2023-03-30T06:10:02.923Z,29.20
2023-03-30T06:12:32.706Z,29.40
2023-03-30T06:15:03.604Z,29.33
2023-03-30T06:17:42.628Z,29.39
2023-03-30T06:20:13.660Z,29.28
2023-03-30T06:22:46.690Z,29.70
2023-03-30T06:25:22.629Z,29.89
2023-03-30T06:27:53.374Z,29.73
2023-03-30T06:30:23.219Z,29.74
2023-03-30T06:32:55.508Z,29.85
2023-03-30T06:35:37.274Z,29.80
2023-03-30T06:38:06.388Z,30.28
2023-03-30T06:40:35.496Z,30.38
2023-03-30T06:43:05.022Z,30.34
2023-03-30T06:45:36.721Z,30.60
2023-03-30T06:48:07.597Z,30.85
2023-03-30T06:50:41.468Z,30.71
2023-03-30T06:53:29.238Z,30.92
2023-03-30T06:56:00.531Z,31.12
2023-03-30T06:58:32.442Z,30.93
2023-03-30T07:01:11.106Z,30.96
2023-03-30T07:04:00.484Z,30.75
2023-03-30T07:06:49.534Z,30.95
2023-03-30T07:09:19.498Z,31.19
2023-03-30T07:11:48.596Z,31.11
2023-03-30T07:14:17.596Z,31.28
2023-03-30T07:16:49.185Z,31.06
2023-03-30T07:19:18.430Z,30.84
2023-03-30T07:21:47.561Z,31.32
2023-03-30T07:24:19.283Z,31.07
2023-03-30T07:26:48.427Z,31.06
2023-03-30T07:29:17.546Z,31.24
2023-03-30T07:31:52.224Z,31.43
2023-03-30T07:34:22.235Z,31.67
2023-03-30T07:36:55.975Z,31.59
2023-03-30T07:39:32.105Z,31.49
2023-03-30T07:42:04.995Z,31.55
2023-03-30T07:44:33.999Z,31.46
2023-03-30T07:47:07.806Z,31.67
2023-03-30T07:49:38.738Z,31.10
2023-03-30T07:52:08.581Z,30.86
2023-03-30T07:54:58.649Z,31.18
2023-03-30T07:57:49.525Z,31.48
2023-03-30T08:00:19.874Z,31.61
2023-03-30T08:03:23.047Z,31.96
2023-03-30T08:05:57.043Z,31.97
2023-03-30T08:08:34.127Z,31.94
2023-03-30T08:11:04.336Z,31.76
2023-03-30T08:13:33.942Z,31.72
2023-03-30T08:16:02.915Z,31.95
2023-03-30T08:18:32.488Z,31.80
2023-03-30T08:21:01.487Z,31.65
2023-03-30T08:23:31.103Z,31.72
2023-03-30T08:26:03.306Z,31.64
2023-03-30T08:28:33.026Z,31.94
2023-03-30T08:31:07.060Z,32.06
2023-03-30T08:33:36.326Z,31.65
2023-03-30T08:36:06.507Z,31.70
2023-03-30T08:38:35.603Z,31.72
2023-03-30T08:41:28.114Z,31.93
2023-03-30T08:43:58.948Z,31.83
2023-03-30T08:46:30.212Z,31.75
2023-03-30T08:49:07.421Z,31.84
2023-03-30T08:51:39.190Z,32.01
2023-03-30T08:54:11.560Z,32.01
2023-03-30T08:57:02.145Z,32.04
2023-03-30T09:00:07.600Z,32.02
2023-03-30T09:02:45.059Z,31.95
2023-03-30T09:05:23.545Z,31.83
2023-03-30T09:07:56.747Z,31.97
2023-03-30T09:10:30.289Z,31.86
2023-03-30T09:13:02.311Z,32.02
2023-03-30T09:15:40.917Z,32.06
2023-03-30T09:18:35.825Z,32.06
2023-03-30T09:21:07.344Z,32.19
2023-03-30T09:23:36.756Z,32.22
2023-03-30T09:26:12.245Z,32.05
2023-03-30T09:28:50.836Z,32.20
2023-03-30T09:31:45.156Z,32.33
2023-03-30T09:34:41.959Z,32.36
2023-03-30T09:37:12.926Z,32.20
2023-03-30T09:39:42.324Z,32.00
2023-03-30T09:42:24.158Z,32.07
2023-03-30T09:45:22.980Z,32.04
2023-03-30T09:47:52.123Z,31.96
2023-03-30T09:50:30.172Z,31.91
2023-03-30T09:53:04.745Z,32.00
2023-03-30T09:55:36.115Z,31.96
2023-03-30T09:58:30.029Z,31.99
2023-03-30T10:01:07.827Z,31.84
2023-03-30T10:03:37.541Z,31.58
2023-03-30T10:06:16.909Z,31.89
2023-03-30T10:08:52.190Z,31.28
2023-03-30T10:11:23.344Z,31.39
2023-03-30T10:13:52.872Z,31.21
2023-03-30T10:16:35.772Z,31.45
2023-03-30T10:19:17.715Z,31.31
2023-03-30T10:21:47.976Z,31.27
2023-03-30T10:24:17.107Z,30.97
2023-03-30T10:26:56.796Z,31.23
2023-03-30T10:29:29.543Z,31.31
2023-03-30T10:32:05.089Z,31.30
2023-03-30T10:34:36.997Z,31.26
2023-03-30T10:37:19.476Z,31.34
2023-03-30T10:39:49.987Z,31.40
2023-03-30T10:42:25.216Z,31.41
2023-03-30T10:45:07.244Z,31.25
2023-03-30T10:47:54.625Z,31.26
2023-03-30T10:50:36.769Z,31.20
2023-03-30T10:53:43.754Z,31.32
2023-03-30T10:56:41.318Z,31.30
2023-03-30T10:59:13.252Z,31.32
2023-03-30T11:01:58.894Z,31.20
2023-03-30T11:04:38.283Z,31.36
2023-03-30T11:07:19.241Z,31.12
2023-03-30T11:09:55.168Z,31.21
2023-03-30T11:12:27.999Z,31.30
2023-03-30T11:15:06.288Z,31.22
2023-03-30T11:17:51.312Z,31.25
2023-03-30T11:20:28.301Z,31.21
2023-03-30T11:23:39.944Z,31.22
2023-03-30T11:26:13.463Z,31.21
2023-03-30T11:29:04.073Z,31.30
2023-03-30T11:31:41.929Z,31.37
2023-03-30T11:34:24.773Z,31.27
2023-03-30T11:37:07.143Z,31.08
2023-03-30T11:39:40.231Z,30.75
2023-03-30T11:42:31.703Z,30.87
2023-03-30T11:45:02.853Z,30.75
2023-03-30T11:48:08.953Z,30.89
2023-03-30T11:50:56.609Z,30.67
2023-03-30T11:53:38.227Z,30.58
2023-03-30T11:56:17.477Z,30.69
2023-03-30T11:59:46.385Z,30.77
2023-03-30T12:02:41.325Z,30.44
2023-03-30T12:05:19.092Z,30.47
2023-03-30T12:08:04.821Z,30.35
2023-03-30T12:10:45.859Z,30.40
2023-03-30T12:13:19.643Z,30.23
2023-03-30T12:16:09.212Z,30.28
2023-03-30T12:18:42.067Z,30.12
2023-03-30T12:21:25.735Z,30.08
2023-03-30T12:24:03.150Z,30.09
2023-03-30T12:26:38.972Z,30.01
2023-03-30T12:32:05.975Z,30.02
2023-03-30T12:34:42.107Z,30.06
2023-03-30T12:37:34.292Z,29.85
2023-03-30T12:40:21.495Z,29.93
2023-03-30T12:43:09.988Z,29.87
2023-03-30T12:46:03.293Z,29.83
2023-03-30T12:49:52.404Z,29.80
2023-03-30T12:52:34.626Z,29.71
2023-03-30T12:55:32.678Z,29.67
2023-03-30T12:58:19.916Z,29.64
2023-03-30T13:01:07.264Z,29.56
2023-03-30T13:03:55.464Z,29.53
2023-03-30T13:06:37.209Z,29.45
2023-03-30T13:09:17.925Z,29.42
2023-03-30T13:12:28.055Z,29.58
2023-03-30T13:15:19.077Z,29.53
2023-03-30T13:17:56.973Z,29.43
2023-03-30T13:20:57.841Z,29.41
2023-03-30T13:23:33.084Z,29.25
2023-03-30T13:26:40.253Z,29.32
2023-03-30T13:29:16.248Z,29.18
2023-03-30T13:32:03.340Z,29.22
2023-03-30T13:35:13.326Z,29.20
2023-03-30T13:38:23.050Z,29.17
2023-03-30T13:41:22.877Z,29.09
2023-03-30T13:43:57.570Z,29.00
2023-03-30T13:46:54.120Z,28.97
2023-03-30T13:49:56.158Z,29.01
2023-03-30T13:52:38.312Z,28.89
2023-03-30T13:55:28.131Z,28.90
2023-03-30T13:58:04.274Z,28.87
2023-03-30T14:00:46.586Z,28.85
2023-03-30T14:03:41.110Z,28.87
2023-03-30T14:06:19.008Z,28.80
2023-03-30T14:08:59.479Z,28.74
2023-03-30T14:11:37.335Z,28.70
2023-03-30T14:14:07.743Z,28.51
2023-03-30T14:16:41.433Z,28.41
2023-03-30T14:19:23.149Z,27.95
2023-03-30T14:22:00.831Z,27.80
2023-03-30T14:24:33.668Z,27.38
2023-03-30T14:27:03.980Z,26.82
2023-03-30T14:29:33.430Z,26.58
2023-03-30T14:34:36.027Z,26.23
2023-03-30T14:37:08.655Z,26.04
2023-03-30T14:39:44.419Z,26.05
2023-03-30T14:42:22.361Z,25.99
2023-03-30T14:44:55.119Z,25.97
2023-03-30T14:47:29.755Z,26.04
2023-03-30T14:50:03.276Z,25.95
2023-03-30T14:52:41.753Z,26.01
2023-03-30T14:55:25.250Z,26.11
2023-03-30T14:57:56.771Z,26.00
2023-03-30T15:00:26.101Z,25.97
2023-03-30T15:03:01.648Z,25.74
2023-03-30T15:05:37.393Z,25.60
2023-03-30T15:08:22.952Z,25.51
2023-03-30T15:10:57.856Z,25.69
2023-03-30T15:13:54.049Z,25.61
2023-03-30T15:16:32.801Z,25.56
2023-03-30T15:19:30.869Z,25.63
2023-03-30T15:22:06.177Z,25.53
2023-03-30T15:24:38.493Z,25.44
2023-03-30T15:27:12.721Z,25.58
2023-03-30T15:29:42.623Z,25.42
2023-03-30T15:32:28.353Z,25.53
2023-03-30T15:35:03.139Z,25.55
2023-03-30T15:37:33.197Z,25.58
2023-03-30T15:40:02.498Z,25.43
2023-03-30T15:42:34.848Z,25.67
2023-03-30T15:45:10.213Z,25.69
2023-03-30T15:47:40.065Z,25.68
2023-03-30T15:50:14.652Z,25.72
2023-03-30T15:52:45.697Z,25.65
2023-03-30T15:55:27.285Z,25.77
2023-03-30T15:57:56.788Z,25.60
2023-03-30T16:00:29.859Z,25.70
2023-03-30T16:03:01.259Z,25.78
2023-03-30T16:05:37.708Z,25.80
2023-03-30T16:08:06.870Z,25.70
2023-03-30T16:10:38.438Z,25.58
2023-03-30T16:13:08.129Z,25.43
2023-03-30T16:15:36.906Z,25.45
2023-03-30T16:18:06.027Z,25.27
2023-03-30T16:20:35.801Z,25.20
2023-03-30T16:23:05.498Z,25.03
2023-03-30T16:25:44.927Z,24.77
2023-03-30T16:28:18.785Z,24.67
2023-03-30T16:30:50.042Z,24.69
2023-03-30T16:33:19.414Z,24.64
2023-03-30T16:35:48.227Z,24.57
2023-03-30T16:38:18.726Z,24.64
2023-03-30T16:40:54.790Z,24.63
2023-03-30T16:43:24.349Z,24.49
2023-03-30T16:45:53.110Z,24.53
2023-03-30T16:48:22.987Z,24.53
2023-03-30T16:50:57.531Z,24.61
2023-03-30T16:53:26.608Z,24.60
2023-03-30T16:55:55.561Z,24.55
2023-03-30T16:58:24.532Z,24.51
2023-03-30T17:00:57.349Z,24.51
2023-03-30T17:03:26.617Z,24.30
2023-03-30T17:05:55.574Z,24.40
2023-03-30T17:08:26.717Z,24.51
2023-03-30T17:10:59.385Z,24.53
2023-03-30T17:13:29.411Z,24.49
2023-03-30T17:16:03.634Z,24.43
2023-03-30T17:18:32.718Z,24.47
2023-03-30T17:21:03.059Z,24.53
2023-03-30T17:23:33.813Z,24.56
2023-03-30T17:26:03.558Z,24.55
2023-03-30T17:28:35.090Z,24.60
2023-03-30T17:31:08.421Z,24.64
2023-03-30T17:33:39.101Z,24.68
2023-03-30T17:36:19.305Z,24.71
2023-03-30T17:38:49.080Z,24.74
2023-03-30T17:41:20.286Z,24.61
2023-03-30T17:43:50.140Z,24.51
2023-03-30T17:46:20.607Z,24.46
2023-03-30T17:48:52.082Z,24.47
2023-03-30T17:51:21.500Z,24.41
2023-03-30T17:53:50.270Z,24.27
2023-03-30T17:56:19.364Z,24.17
2023-03-30T17:58:49.911Z,24.13
2023-03-30T18:01:18.933Z,24.15
2023-03-30T18:03:47.727Z,24.28
2023-03-30T18:06:16.751Z,24.25
2023-03-30T18:08:45.482Z,24.30
2023-03-30T18:11:14.525Z,24.26
2023-03-30T18:13:43.337Z,24.18
2023-03-30T18:16:18.714Z,24.24
2023-03-30T18:18:47.861Z,24.23
2023-03-30T18:21:16.666Z,24.21
2023-03-30T18:23:45.594Z,24.14
2023-03-30T18:26:14.854Z,24.07
2023-03-30T18:28:47.324Z,24.08
2023-03-30T18:31:16.516Z,24.00
2023-03-30T18:33:45.453Z,23.94
2023-03-30T18:36:15.565Z,23.94
2023-03-30T18:38:44.334Z,23.81
2023-03-30T18:41:14.090Z,23.87
2023-03-30T18:43:42.967Z,23.78
2023-03-30T18:46:14.418Z,23.74
2023-03-30T18:48:43.695Z,23.56
2023-03-30T18:51:13.651Z,23.57
2023-03-30T18:53:42.654Z,23.50
2023-03-30T18:56:13.321Z,23.52
2023-03-30T18:58:43.452Z,23.49
2023-03-30T19:01:14.164Z,23.45
2023-03-30T19:03:44.096Z,23.24
2023-03-30T19:06:22.946Z,23.29
2023-03-30T19:11:24.485Z,22.96
2023-03-30T19:13:54.060Z,23.01
2023-03-30T19:16:23.287Z,22.88
2023-03-30T19:18:52.364Z,22.75
2023-03-30T19:21:21.369Z,22.75
2023-03-30T19:23:51.072Z,22.84
2023-03-30T19:26:19.928Z,22.88
2023-03-30T19:28:48.822Z,22.86
2023-03-30T19:31:17.849Z,22.90
2023-03-30T19:33:46.847Z,22.90
2023-03-30T19:36:15.556Z,22.99
2023-03-30T19:38:44.845Z,23.00
2023-03-30T19:41:13.762Z,23.04
2023-03-30T19:43:42.746Z,23.08
2023-03-30T19:46:11.756Z,23.13
2023-03-30T19:48:40.814Z,23.17
2023-03-30T19:51:09.482Z,23.16
2023-03-30T19:53:38.439Z,23.10
2023-03-30T19:56:12.978Z,23.22
2023-03-30T19:58:41.905Z,23.15
2023-03-30T20:01:11.583Z,23.12
2023-03-30T20:03:41.530Z,23.09
2023-03-30T20:06:14.534Z,23.18
2023-03-30T20:08:44.770Z,23.20
2023-03-30T20:11:14.931Z,23.18
2023-03-30T20:13:47.088Z,23.07
2023-03-30T20:16:27.165Z,23.11
2023-03-30T20:18:58.924Z,22.97
2023-03-30T20:21:29.558Z,22.88
2023-03-30T20:24:01.224Z,22.74
2023-03-30T20:26:31.864Z,22.80
2023-03-30T20:29:03.131Z,22.77
2023-03-30T20:31:33.678Z,22.69
2023-03-30T20:34:03.923Z,22.74
2023-03-30T20:36:34.361Z,22.72
2023-03-30T20:39:07.255Z,22.66
2023-03-30T20:41:40.076Z,22.70
2023-03-30T20:44:14.790Z,22.71
2023-03-30T20:46:44.861Z,22.73
2023-03-30T20:49:15.523Z,22.65
2023-03-30T20:51:46.670Z,22.73
2023-03-30T20:54:17.306Z,22.75
2023-03-30T20:56:47.625Z,22.85
2023-03-30T20:59:18.220Z,22.83
2023-03-30T21:01:50.463Z,22.85
2023-03-30T21:04:21.378Z,22.82
2023-03-30T21:06:51.723Z,22.75
2023-03-30T21:09:22.056Z,22.82
2023-03-30T21:11:52.219Z,22.87
2023-03-30T21:14:22.248Z,22.89
2023-03-30T21:16:52.364Z,22.96
2023-03-30T21:19:22.309Z,22.85
2023-03-30T21:21:53.214Z,22.88
2023-03-30T21:24:23.174Z,22.94
2023-03-30T21:26:53.293Z,22.90
2023-03-30T21:29:23.546Z,22.91
2023-03-30T21:31:53.638Z,23.02
2023-03-30T21:34:23.652Z,22.99
2023-03-30T21:36:54.298Z,22.99
2023-03-30T21:39:23.458Z,22.97
2023-03-30T21:41:52.344Z,22.95
2023-03-30T21:44:21.598Z,22.99
2023-03-30T21:46:50.460Z,22.93
2023-03-30T21:49:19.638Z,22.83
2023-03-30T21:51:48.336Z,22.77
2023-03-30T21:54:17.387Z,22.91
2023-03-30T21:56:46.860Z,22.97
2023-03-30T21:59:15.813Z,22.88
2023-03-30T22:01:44.706Z,22.95
2023-03-30T22:04:13.676Z,22.93
2023-03-30T22:06:42.394Z,22.95
2023-03-30T22:09:11.362Z,22.96
2023-03-30T22:11:40.038Z,23.03
2023-03-30T22:14:09.069Z,22.89
2023-03-30T22:16:38.100Z,22.58
2023-03-30T22:19:07.037Z,22.47
2023-03-30T22:21:36.465Z,22.52
2023-03-30T22:24:08.248Z,22.49
2023-03-30T22:26:37.645Z,22.34
2023-03-30T22:29:06.861Z,22.33
2023-03-30T22:31:36.058Z,22.20
2023-03-30T22:34:04.987Z,22.01
2023-03-30T22:36:34.104Z,22.05
2023-03-30T22:39:04.327Z,22.06
2023-03-30T22:41:33.456Z,21.99
2023-03-30T22:44:02.254Z,22.02
2023-03-30T22:46:31.325Z,21.78
2023-03-30T22:49:01.082Z,21.86
2023-03-30T22:51:30.053Z,21.71
2023-03-30T22:54:00.698Z,21.81
2023-03-30T22:56:31.258Z,21.73
2023-03-30T22:59:02.281Z,21.78
2023-03-30T23:01:32.912Z,21.80
2023-03-30T23:04:02.627Z,21.77
2023-03-30T23:06:32.757Z,21.72
2023-03-30T23:09:05.601Z,21.68
2023-03-30T23:11:35.154Z,21.69
2023-03-30T23:14:07.161Z,21.60
2023-03-30T23:16:36.750Z,21.60
2023-03-30T23:19:07.071Z,21.71
2023-03-30T23:21:36.770Z,21.59
2023-03-30T23:24:08.720Z,21.56
2023-03-30T23:26:37.933Z,21.38
2023-03-30T23:29:08.193Z,21.48
2023-03-30T23:31:37.161Z,21.33
2023-03-30T23:34:06.273Z,21.11
2023-03-30T23:36:35.795Z,21.28
2023-03-30T23:39:04.564Z,21.32
2023-03-30T23:41:33.429Z,21.36
2023-03-30T23:44:02.277Z,21.27
2023-03-30T23:46:31.516Z,21.30
2023-03-30T23:49:00.573Z,21.27
2023-03-30T23:51:29.434Z,21.27
2023-03-30T23:54:01.089Z,21.24
2023-03-30T23:56:30.908Z,21.17
2023-03-30T23:59:00.375Z,21.21
